createdAt,value
2018-12-22T00:03:19.737Z,2.5
2018-12-22T00:13:33.081Z,4.1
2018-12-22T00:23:46.406Z,3.1
2018-12-22T00:33:59.807Z,4.5
2018-12-22T00:44:15.101Z,4.1
2018-12-22T00:54:29.137Z,2.2
2018-12-22T01:04:42.130Z,4.0
2018-12-22T01:14:55.433Z,5.5
2018-12-22T01:25:08.686Z,3.9
2018-12-22T01:35:21.861Z,3.5
2018-12-22T01:45:34.764Z,3.6
2018-12-22T01:55:48.485Z,4.2
2018-12-22T02:06:02.399Z,4.1
2018-12-22T02:16:15.449Z,3.4
2018-12-22T02:27:00.187Z,3.1
2018-12-22T02:37:13.526Z,2.3
2018-12-22T02:47:26.653Z,2.6
2018-12-22T02:57:39.756Z,2.9
2018-12-22T03:07:53.074Z,3.7
2018-12-22T03:19:26.136Z,6.7
2018-12-22T03:29:40.167Z,2.3
2018-12-22T03:39:54.034Z,3.9
2018-12-22T03:50:11.786Z,3.8
2018-12-22T04:00:28.073Z,3.5
2018-12-22T04:22:25.194Z,3.5
2018-12-22T04:32:41.244Z,2.5
2018-12-22T04:42:52.754Z,2.6
2018-12-22T04:53:21.831Z,1.1
2018-12-22T05:04:13.051Z,2.1
2018-12-22T05:14:31.460Z,1.6
2018-12-22T05:24:51.987Z,2.3
2018-12-22T05:35:38.122Z,2.6
2018-12-22T05:47:30.324Z,2.3
2018-12-22T05:58:20.106Z,1.2
2018-12-22T06:08:41.331Z,1.3
2018-12-22T06:19:26.520Z,2.0
2018-12-22T06:29:45.876Z,1.4
2018-12-22T06:40:04.433Z,1.9
2018-12-22T06:50:54.920Z,1.5
2018-12-22T07:01:08.820Z,1.4
2018-12-22T07:11:27.985Z,2.0
2018-12-22T07:21:51.183Z,1.7
2018-12-22T07:32:38.888Z,2.2
2018-12-22T07:42:53.240Z,1.0
2018-12-22T07:55:34.493Z,1.6
2018-12-22T08:06:22.490Z,1.8
2018-12-22T08:17:15.377Z,1.5
2018-12-22T08:28:03.652Z,3.7
2018-12-22T08:38:59.939Z,1.9
2018-12-22T08:49:13.782Z,1.1
2018-12-22T09:02:47.781Z,1.9
2018-12-22T09:13:33.663Z,1.3
2018-12-22T09:23:46.946Z,1.6
2018-12-22T09:34:00.259Z,1.0
2018-12-22T09:44:14.520Z,1.8
2018-12-22T09:54:27.898Z,2.9
2018-12-22T10:04:41.188Z,3.8
2018-12-22T10:15:26.175Z,4.4
2018-12-22T10:26:11.356Z,4.9
2018-12-22T10:36:25.083Z,2.5
2018-12-22T10:46:40.580Z,3.3
2018-12-22T10:56:54.310Z,2.1
2018-12-22T11:08:18.326Z,3.3
2018-12-22T11:18:32.692Z,1.8
2018-12-22T11:28:46.906Z,2.4
2018-12-22T11:39:00.937Z,1.7
2018-12-22T11:49:14.289Z,1.0
2018-12-22T11:59:27.919Z,1.5
2018-12-22T12:09:41.748Z,0.8
2018-12-22T12:19:56.146Z,0.9
2018-12-22T12:30:10.457Z,0.9
2018-12-22T12:40:25.086Z,1.0
2018-12-22T12:51:22.094Z,0.9
2018-12-22T13:02:09.544Z,1.4
2018-12-22T13:12:54.939Z,1.0
2018-12-22T13:23:09.444Z,0.9
2018-12-22T13:33:54.549Z,0.6
2018-12-22T13:44:56.745Z,1.2
2018-12-22T13:56:35.677Z,1.2
2018-12-22T14:07:35.417Z,0.8
2018-12-22T14:18:26.694Z,1.1
2018-12-22T14:28:52.363Z,1.8
2018-12-22T14:39:44.318Z,1.2
2018-12-22T14:50:01.973Z,1.5
2018-12-22T15:00:51.518Z,1.9
2018-12-22T16:57:25.760Z,2.0
2018-12-22T21:20:22.341Z,4.9
2018-12-22T21:31:07.010Z,5.0
2018-12-22T21:41:20.642Z,2.7
2018-12-22T21:51:34.635Z,2.8
2018-12-22T22:01:47.972Z,2.9
2018-12-22T22:12:02.153Z,2.3
2018-12-22T22:22:16.207Z,1.9
2018-12-22T22:32:29.511Z,2.7
2018-12-22T22:42:43.839Z,2.3
2018-12-22T22:53:32.631Z,3.9
2018-12-22T23:04:19.951Z,2.2
2018-12-22T23:14:33.301Z,1.7
2018-12-22T23:24:46.781Z,1.7
2018-12-22T23:35:02.980Z,2.3
2018-12-22T23:45:11.266Z,2.0
2018-12-22T23:55:24.153Z,2.1
